createdAt,value
2019-02-04T00:01:55.299Z,86.90
2019-02-04T00:05:00.435Z,86.00
2019-02-04T00:08:05.683Z,86.00
2019-02-04T00:11:11.384Z,86.00
2019-02-04T00:14:19.231Z,86.10
2019-02-04T00:17:28.291Z,86.20
2019-02-04T00:20:35.024Z,86.40
2019-02-04T00:23:44.768Z,86.60
2019-02-04T00:26:51.962Z,86.80
2019-02-04T00:29:58.353Z,86.80
2019-02-04T00:33:04.863Z,86.70
2019-02-04T00:36:10.079Z,86.80
2019-02-04T00:39:15.260Z,86.60
2019-02-04T00:42:20.496Z,86.70
2019-02-04T00:45:25.612Z,86.80
2019-02-04T00:48:30.738Z,86.90
2019-02-04T00:51:35.847Z,86.80
2019-02-04T00:54:40.973Z,86.60
2019-02-04T00:57:46.143Z,86.80
2019-02-04T01:00:51.268Z,86.90
2019-02-04T01:03:56.392Z,86.90
2019-02-04T01:07:01.595Z,87.00
2019-02-04T01:10:07.407Z,87.20
2019-02-04T01:13:12.848Z,87.50
2019-02-04T01:16:18.063Z,87.80
2019-02-04T01:19:23.259Z,88.30
2019-02-04T01:22:28.402Z,88.50
2019-02-04T01:25:33.685Z,88.90
2019-02-04T01:28:38.822Z,89.20
2019-02-04T01:31:43.933Z,89.60
2019-02-04T01:34:55.895Z,89.90
2019-02-04T01:38:00.927Z,90.00
2019-02-04T01:41:06.189Z,90.10
2019-02-04T01:44:11.299Z,90.30
2019-02-04T01:47:16.519Z,90.30
2019-02-04T01:50:22.840Z,90.40
2019-02-04T01:53:27.939Z,90.50
2019-02-04T01:56:32.979Z,90.50
2019-02-04T01:59:38.035Z,90.60
2019-02-04T02:02:43.273Z,90.70
2019-02-04T02:05:48.589Z,91.10
2019-02-04T02:08:53.807Z,90.80
2019-02-04T02:11:58.865Z,90.80
2019-02-04T02:15:04.521Z,90.90
2019-02-04T02:18:09.706Z,90.90
2019-02-04T02:21:14.824Z,91.00
2019-02-04T02:24:19.876Z,91.00
2019-02-04T02:27:24.859Z,91.10
2019-02-04T02:30:31.822Z,91.10
2019-02-04T02:33:36.948Z,91.10
2019-02-04T02:36:42.377Z,91.10
2019-02-04T02:39:47.596Z,91.20
2019-02-04T02:42:52.799Z,91.20
2019-02-04T02:45:58.184Z,91.20
2019-02-04T02:49:03.362Z,91.30
2019-02-04T02:52:08.491Z,91.40
2019-02-04T02:55:14.331Z,91.50
2019-02-04T02:58:19.400Z,91.50
2019-02-04T03:01:24.596Z,91.50
2019-02-04T03:04:29.791Z,91.80
2019-02-04T03:07:34.877Z,91.40
2019-02-04T03:10:40.099Z,91.30
2019-02-04T03:13:45.351Z,91.00
2019-02-04T03:16:50.762Z,90.90
2019-02-04T03:19:55.889Z,90.90
2019-02-04T03:23:01.084Z,90.90
2019-02-04T03:26:06.272Z,91.00
2019-02-04T03:29:11.459Z,91.30
2019-02-04T03:32:16.514Z,91.00
2019-02-04T03:35:21.691Z,91.20
2019-02-04T03:38:26.816Z,91.30
2019-02-04T03:41:32.016Z,91.40
2019-02-04T03:44:37.175Z,91.50
2019-02-04T03:47:42.499Z,91.50
2019-02-04T03:50:47.663Z,91.60
2019-02-04T03:53:52.803Z,91.70
2019-02-04T03:56:58.008Z,91.70
2019-02-04T04:00:03.229Z,91.80
2019-02-04T04:03:08.406Z,91.80
2019-02-04T04:06:13.551Z,91.80
2019-02-04T04:09:18.693Z,91.80
2019-02-04T04:12:23.755Z,91.80
2019-02-04T04:15:28.932Z,91.80
2019-02-04T04:18:34.052Z,91.80
2019-02-04T04:21:39.240Z,91.80
2019-02-04T04:24:44.371Z,91.90
2019-02-04T04:27:49.863Z,92.00
2019-02-04T04:30:54.938Z,92.10
2019-02-04T04:34:00.084Z,92.00
2019-02-04T04:37:05.202Z,92.00
2019-02-04T04:40:10.632Z,92.00
2019-02-04T04:43:15.691Z,92.00
2019-02-04T04:46:20.883Z,92.10
2019-02-04T04:49:26.028Z,92.10
2019-02-04T04:52:31.299Z,92.20
2019-02-04T04:55:36.407Z,92.20
2019-02-04T04:58:41.912Z,92.30
2019-02-04T05:01:47.054Z,92.30
2019-02-04T05:04:52.177Z,92.30
2019-02-04T05:07:57.530Z,92.30
2019-02-04T05:11:02.704Z,92.30
2019-02-04T05:14:07.910Z,92.40
2019-02-04T05:17:13.450Z,92.40
2019-02-04T05:20:19.272Z,92.40
2019-02-04T05:23:24.418Z,92.50
2019-02-04T05:26:29.533Z,92.50
2019-02-04T05:29:34.848Z,92.50
2019-02-04T05:32:39.987Z,92.60
2019-02-04T05:35:45.122Z,92.60
2019-02-04T05:38:50.523Z,92.50
2019-02-04T05:41:55.686Z,92.50
2019-02-04T05:45:00.724Z,92.50
2019-02-04T05:48:05.927Z,92.50
2019-02-04T05:51:11.055Z,92.50
2019-02-04T05:54:16.227Z,92.50
2019-02-04T05:57:21.205Z,92.50
2019-02-04T06:00:43.040Z,92.50
2019-02-04T06:03:48.177Z,92.50
2019-02-04T06:06:53.430Z,92.60
2019-02-04T06:09:58.779Z,92.60
2019-02-04T06:13:04.358Z,92.70
2019-02-04T06:16:09.562Z,92.70
2019-02-04T06:19:14.701Z,92.80
2019-02-04T06:22:20.044Z,92.80
2019-02-04T06:25:25.189Z,92.70
2019-02-04T06:28:30.345Z,92.80
2019-02-04T06:31:35.547Z,92.90
2019-02-04T06:34:40.878Z,92.90
2019-02-04T06:37:46.912Z,93.20
2019-02-04T06:40:52.412Z,92.90
2019-02-04T06:43:57.536Z,92.90
2019-02-04T06:47:02.675Z,92.90
2019-02-04T06:50:09.652Z,92.90
2019-02-04T06:53:15.072Z,92.90
2019-02-04T06:56:20.211Z,92.90
2019-02-04T06:59:25.547Z,92.80
2019-02-04T07:02:30.953Z,92.80
2019-02-04T07:05:43.533Z,92.80
2019-02-04T07:08:42.859Z,92.80
2019-02-04T07:11:47.968Z,92.70
2019-02-04T07:14:53.040Z,92.90
2019-02-04T07:18:01.638Z,92.90
2019-02-04T07:21:05.098Z,92.80
2019-02-04T07:24:10.297Z,92.60
2019-02-04T07:27:15.487Z,92.60
2019-02-04T07:30:22.360Z,92.80
2019-02-04T07:33:27.787Z,92.80
2019-02-04T07:36:32.870Z,92.90
2019-02-04T07:39:38.093Z,93.00
2019-02-04T07:42:44.231Z,93.10
2019-02-04T07:45:49.304Z,93.40
2019-02-04T07:48:54.436Z,93.00
2019-02-04T07:51:59.579Z,93.00
2019-02-04T07:55:05.107Z,93.10
2019-02-04T07:58:10.231Z,93.10
2019-02-04T08:01:15.325Z,93.20
2019-02-04T08:04:20.543Z,93.20
2019-02-04T08:07:25.780Z,93.30
2019-02-04T08:10:31.534Z,93.20
2019-02-04T08:13:37.125Z,93.20
2019-02-04T08:16:42.178Z,93.20
2019-02-04T08:19:47.657Z,93.20
2019-02-04T08:22:52.787Z,93.10
2019-02-04T08:25:58.025Z,93.00
2019-02-04T08:29:03.228Z,93.00
2019-02-04T08:32:08.452Z,92.90
2019-02-04T08:35:13.775Z,92.80
2019-02-04T08:38:19.000Z,92.80
2019-02-04T08:41:24.200Z,92.80
2019-02-04T08:44:29.348Z,92.80
2019-02-04T08:47:34.560Z,92.70
2019-02-04T08:50:39.803Z,92.60
2019-02-04T08:53:45.005Z,92.50
2019-02-04T08:56:50.240Z,92.40
2019-02-04T08:59:55.417Z,92.30
2019-02-04T09:03:00.612Z,92.30
2019-02-04T09:06:05.935Z,92.30
2019-02-04T09:09:11.236Z,92.30
2019-02-04T09:12:16.750Z,92.30
2019-02-04T09:15:22.148Z,92.20
2019-02-04T09:18:27.303Z,92.30
2019-02-04T09:21:32.716Z,92.20
2019-02-04T09:24:37.791Z,92.10
2019-02-04T09:27:42.872Z,92.20
2019-02-04T09:30:48.306Z,92.10
2019-02-04T09:33:53.545Z,92.00
2019-02-04T09:36:58.877Z,91.90
2019-02-04T09:40:04.397Z,91.80
2019-02-04T09:43:09.788Z,91.80
2019-02-04T09:46:14.992Z,91.60
2019-02-04T09:49:20.207Z,91.60
2019-02-04T09:52:25.415Z,91.30
2019-02-04T09:55:34.983Z,91.30
2019-02-04T09:58:40.145Z,91.10
2019-02-04T10:01:45.332Z,90.90
2019-02-04T10:04:50.483Z,90.80
2019-02-04T10:07:55.541Z,90.60
2019-02-04T10:11:00.775Z,90.30
2019-02-04T10:14:06.112Z,90.20
2019-02-04T10:17:11.304Z,90.10
2019-02-04T10:20:16.607Z,89.50
2019-02-04T10:23:21.792Z,89.20
2019-02-04T10:26:26.963Z,89.10
2019-02-04T10:29:32.081Z,88.60
2019-02-04T10:32:37.330Z,88.20
2019-02-04T10:35:42.728Z,87.70
2019-02-04T10:38:47.928Z,87.30
2019-02-04T10:41:53.510Z,87.10
2019-02-04T10:45:01.158Z,86.70
2019-02-04T10:48:06.598Z,86.10
2019-02-04T10:51:11.831Z,86.10
2019-02-04T10:54:17.069Z,86.10
2019-02-04T10:57:22.241Z,85.40
2019-02-04T11:00:30.215Z,84.10
2019-02-04T11:03:35.421Z,82.90
2019-02-04T11:06:40.615Z,82.70
2019-02-04T11:09:45.784Z,82.00
2019-02-04T11:12:51.295Z,81.60
2019-02-04T11:15:56.547Z,81.10
2019-02-04T11:19:01.707Z,79.80
2019-02-04T11:22:07.028Z,79.10
2019-02-04T11:25:12.400Z,78.30
2019-02-04T11:28:17.680Z,77.70
2019-02-04T11:31:22.970Z,76.60
2019-02-04T11:34:28.143Z,76.20
2019-02-04T11:37:33.357Z,75.70
2019-02-04T11:40:39.256Z,75.00
2019-02-04T11:43:44.460Z,73.90
2019-02-04T11:46:49.684Z,72.90
2019-02-04T11:49:54.811Z,72.10
2019-02-04T11:53:00.242Z,71.60
2019-02-04T11:56:05.374Z,71.30
2019-02-04T11:59:10.513Z,71.20
2019-02-04T12:02:15.620Z,70.30
2019-02-04T12:05:21.409Z,70.30
2019-02-04T12:08:26.559Z,70.10
2019-02-04T12:11:31.607Z,69.30
2019-02-04T12:14:36.748Z,68.80
2019-02-04T12:17:41.947Z,67.80
2019-02-04T12:20:47.253Z,67.00
2019-02-04T12:23:52.446Z,65.90
2019-02-04T12:26:57.572Z,65.60
2019-02-04T12:30:02.684Z,65.60
2019-02-04T12:33:09.858Z,63.90
2019-02-04T12:36:15.066Z,62.10
2019-02-04T12:39:21.851Z,61.30
2019-02-04T12:42:26.992Z,60.80
2019-02-04T12:45:33.375Z,60.70
2019-02-04T12:48:38.632Z,59.40
2019-02-04T12:51:43.810Z,58.80
2019-02-04T12:54:49.035Z,58.60
2019-02-04T12:57:54.263Z,58.20
2019-02-04T13:00:59.394Z,57.70
2019-02-04T13:04:05.374Z,57.60
2019-02-04T13:07:10.572Z,58.20
2019-02-04T13:10:16.735Z,58.30
2019-02-04T13:13:23.214Z,58.10
2019-02-04T13:16:28.395Z,57.30
2019-02-04T13:19:33.601Z,56.60
2019-02-04T13:22:38.780Z,57.00
2019-02-04T13:25:44.175Z,57.50
2019-02-04T13:28:49.217Z,57.90
2019-02-04T13:31:54.179Z,57.80
2019-02-04T13:34:59.349Z,57.60
2019-02-04T13:38:04.936Z,57.60
2019-02-04T13:41:11.892Z,57.80
2019-02-04T13:44:17.008Z,57.40
2019-02-04T13:47:22.080Z,57.30
2019-02-04T13:50:27.943Z,57.50
2019-02-04T13:53:33.079Z,57.30
2019-02-04T13:56:38.299Z,57.60
2019-02-04T13:59:43.495Z,57.80
2019-02-04T14:02:58.814Z,58.00
2019-02-04T14:05:56.504Z,58.40
2019-02-04T14:09:01.661Z,58.80
2019-02-04T14:12:06.769Z,59.00
2019-02-04T14:15:12.491Z,59.40
2019-02-04T14:18:17.609Z,59.80
2019-02-04T14:21:22.745Z,60.20
2019-02-04T14:24:27.816Z,60.80
2019-02-04T14:27:32.949Z,61.10
2019-02-04T14:30:38.696Z,61.40
2019-02-04T14:33:43.840Z,61.60
2019-02-04T14:36:48.940Z,61.70
2019-02-04T14:39:54.076Z,62.40
2019-02-04T14:43:23.288Z,61.60
2019-02-04T14:47:05.602Z,61.80
2019-02-04T14:50:23.704Z,62.40
2019-02-04T14:53:53.922Z,62.80
2019-02-04T14:57:26.046Z,62.90
2019-02-04T15:01:16.900Z,63.10
2019-02-04T15:04:55.976Z,63.50
2019-02-04T15:08:33.436Z,64.00
2019-02-04T15:11:53.615Z,64.20
2019-02-04T15:15:34.011Z,64.50
2019-02-04T15:19:07.968Z,64.60
2019-02-04T15:22:33.099Z,64.50
2019-02-04T15:25:55.015Z,64.10
2019-02-04T15:29:09.743Z,64.30
2019-02-04T15:32:49.023Z,64.40
2019-02-04T15:36:34.164Z,64.20
2019-02-04T15:39:55.444Z,63.90
2019-02-04T15:43:31.664Z,64.70
2019-02-04T15:47:02.266Z,63.30
2019-02-04T15:50:39.506Z,62.70
2019-02-04T15:53:44.551Z,62.30
2019-02-04T15:56:49.987Z,62.70
2019-02-04T15:59:55.203Z,63.20
2019-02-04T16:03:00.400Z,63.50
2019-02-04T16:06:05.518Z,64.10
2019-02-04T16:09:10.916Z,64.60
2019-02-04T16:12:16.067Z,65.40
2019-02-04T16:15:21.473Z,66.20
2019-02-04T16:18:26.712Z,67.00
2019-02-04T16:21:34.140Z,68.10
2019-02-04T16:24:39.100Z,69.00
2019-02-04T16:27:44.736Z,69.80
2019-02-04T16:30:50.034Z,70.40
2019-02-04T16:33:55.324Z,71.30
2019-02-04T16:37:00.836Z,71.80
2019-02-04T16:40:10.155Z,72.50
2019-02-04T16:43:14.518Z,72.70
2019-02-04T16:46:19.756Z,73.00
2019-02-04T16:49:25.104Z,73.30
2019-02-04T16:52:30.378Z,73.70
2019-02-04T16:55:35.636Z,74.20
2019-02-04T16:58:40.984Z,74.70
2019-02-04T17:01:46.200Z,75.10
2019-02-04T17:04:51.581Z,75.50
2019-02-04T17:07:57.337Z,75.80
2019-02-04T17:11:02.658Z,76.00
2019-02-04T17:14:08.224Z,76.20
2019-02-04T17:17:15.253Z,76.40
2019-02-04T17:20:23.268Z,76.60
2019-02-04T17:23:28.599Z,76.80
2019-02-04T17:26:33.941Z,77.10
2019-02-04T17:29:39.311Z,77.40
2019-02-04T17:32:44.497Z,77.60
2019-02-04T17:35:49.974Z,77.90
2019-02-04T17:38:55.248Z,78.10
2019-02-04T17:42:00.553Z,78.40
2019-02-04T17:45:07.379Z,78.60
2019-02-04T17:48:13.164Z,78.80
2019-02-04T17:51:18.328Z,79.00
2019-02-04T17:54:23.585Z,79.40
2019-02-04T17:57:28.836Z,79.50
2019-02-04T18:00:37.457Z,79.80
2019-02-04T18:03:42.724Z,80.10
2019-02-04T18:06:47.921Z,80.20
2019-02-04T18:09:53.272Z,80.60
2019-02-04T18:12:58.459Z,81.70
2019-02-04T18:16:04.291Z,81.20
2019-02-04T18:19:09.916Z,81.50
2019-02-04T18:22:15.248Z,81.90
2019-02-04T18:25:20.553Z,82.10
2019-02-04T18:28:25.829Z,82.50
2019-02-04T18:31:33.966Z,82.90
2019-02-04T18:34:38.116Z,83.00
2019-02-04T18:37:43.613Z,83.20
2019-02-04T18:40:48.914Z,83.40
2019-02-04T18:43:54.142Z,83.60
2019-02-04T18:46:59.400Z,83.90
2019-02-04T18:50:05.890Z,84.00
2019-02-04T18:53:11.560Z,84.30
2019-02-04T18:56:16.769Z,84.50
2019-02-04T18:59:21.976Z,84.80
2019-02-04T19:02:27.504Z,84.90
2019-02-04T19:05:32.837Z,85.20
2019-02-04T19:08:38.181Z,85.50
2019-02-04T19:11:43.579Z,85.60
2019-02-04T19:14:48.746Z,85.70
2019-02-04T19:17:56.297Z,85.90
2019-02-04T19:21:01.543Z,86.30
2019-02-04T19:24:09.758Z,86.50
2019-02-04T19:27:13.659Z,86.60
2019-02-04T19:30:49.643Z,86.80
2019-02-04T19:33:54.877Z,86.90
2019-02-04T19:37:00.435Z,87.10
2019-02-04T19:40:06.188Z,87.30
2019-02-04T19:43:11.340Z,87.50
2019-02-04T19:46:16.547Z,87.60
2019-02-04T19:49:21.732Z,87.70
2019-02-04T19:52:26.987Z,87.90
2019-02-04T19:55:32.206Z,88.00
2019-02-04T19:58:37.431Z,88.20
2019-02-04T20:01:42.531Z,88.40
2019-02-04T20:04:49.499Z,88.70
2019-02-04T20:07:54.792Z,88.90
2019-02-04T20:11:02.605Z,89.30
2019-02-04T20:14:07.028Z,89.40
2019-02-04T20:17:12.622Z,89.60
2019-02-04T20:20:17.797Z,89.70
2019-02-04T20:23:23.030Z,90.00
2019-02-04T20:26:28.168Z,90.00
2019-02-04T20:29:33.177Z,90.00
2019-02-04T20:32:38.411Z,90.10
2019-02-04T20:35:43.628Z,90.10
2019-02-04T20:38:48.912Z,90.20
2019-02-04T20:41:54.597Z,90.30
2019-02-04T20:45:00.902Z,90.30
2019-02-04T20:48:08.128Z,90.40
2019-02-04T20:51:13.477Z,90.50
2019-02-04T20:54:21.366Z,90.50
2019-02-04T20:57:25.759Z,90.60
2019-02-04T21:00:31.923Z,90.60
2019-02-04T21:03:38.281Z,90.60
2019-02-04T21:06:55.391Z,90.70
2019-02-04T21:09:51.297Z,90.80
2019-02-04T21:12:56.637Z,90.80
2019-02-04T21:16:02.036Z,90.90
2019-02-04T21:19:07.300Z,90.90
2019-02-04T21:22:12.884Z,90.90
2019-02-04T21:25:18.766Z,90.90
2019-02-04T21:28:23.952Z,90.90
2019-02-04T21:31:29.131Z,91.00
2019-02-04T21:34:34.392Z,91.00
2019-02-04T21:37:39.849Z,91.10
2019-02-04T21:40:45.122Z,91.20
2019-02-04T21:43:50.563Z,91.20
2019-02-04T21:46:55.843Z,91.20
2019-02-04T21:50:01.057Z,91.30
2019-02-04T21:53:06.257Z,91.30
2019-02-04T21:56:11.493Z,91.40
2019-02-04T21:59:16.607Z,91.40
2019-02-04T22:02:21.753Z,91.40
2019-02-04T22:05:28.390Z,91.30
2019-02-04T22:08:33.543Z,91.40
2019-02-04T22:11:38.859Z,91.50
2019-02-04T22:14:44.275Z,91.40
2019-02-04T22:17:49.677Z,91.40
2019-02-04T22:20:54.891Z,91.40
2019-02-04T22:24:00.004Z,91.40
2019-02-04T22:27:05.440Z,91.40
2019-02-04T22:30:13.940Z,91.50
2019-02-04T22:33:19.352Z,91.50
2019-02-04T22:36:24.757Z,91.50
2019-02-04T22:39:29.949Z,91.50
2019-02-04T22:42:35.096Z,91.50
2019-02-04T22:45:40.221Z,91.30
2019-02-04T22:48:45.460Z,91.30
2019-02-04T22:51:50.601Z,91.30
2019-02-04T22:54:55.876Z,91.20
2019-02-04T22:58:01.030Z,91.20
2019-02-04T23:01:37.419Z,91.20
2019-02-04T23:04:42.609Z,91.20
2019-02-04T23:07:47.766Z,91.10
2019-02-04T23:10:53.035Z,91.20
2019-02-04T23:13:58.178Z,91.10
2019-02-04T23:17:03.346Z,91.00
2019-02-04T23:20:08.976Z,91.00
2019-02-04T23:23:14.182Z,90.90
2019-02-04T23:26:19.416Z,90.80
2019-02-04T23:29:24.562Z,91.10
2019-02-04T23:32:30.090Z,90.50
2019-02-04T23:35:35.208Z,90.30
2019-02-04T23:38:40.427Z,90.30
2019-02-04T23:41:45.755Z,90.20
2019-02-04T23:44:50.887Z,90.10
2019-02-04T23:47:56.045Z,89.70
2019-02-04T23:51:03.389Z,89.50
2019-02-04T23:54:08.591Z,89.30
2019-02-04T23:57:13.887Z,89.20
